Flight Track Log - Related Links

Times and Time Zones

All times are in EDT time to prevent confusion due to time zone crossing. See the N789EX flight status page for this flight to view local times or setup timezone preferences in your user account.

Time Position Orientation Groundspeed Altitude Reporting Facility
EDT Latitude Longitude Course Direction KTS MPH feet Rate Location/Type
Wed 02:04:49 PM 47.4957 -122.2640 139° Southeast 223 257 1,800  Level FlightAware ADS-B
Wed 02:04:57 PM 47.4891 -122.2560 139° Southeast 240 276 2,000 1,909 Climbing FlightAware ADS-B
Wed 02:05:11 PM 47.4770 -122.2410 141° Southeast 247 284 2,500 3,310 Climbing FlightAware ADS-B
Wed 02:05:26 PM 47.4637 -122.2250 140° Southeast 249 287 3,600 4,000 Climbing FlightAware ADS-B
Wed 02:05:41 PM 47.4501 -122.2090 140° Southeast 258 297 4,500 3,677 Climbing FlightAware ADS-B
Wed 02:05:57 PM 47.4360 -122.1910 140° Southeast 261 300 5,500 3,677 Climbing FlightAware ADS-B
Wed 02:06:12 PM 47.4214 -122.1730 141° Southeast 268 308 6,400 3,800 Climbing FlightAware ADS-B
Wed 02:06:27 PM 47.4063 -122.1560 141° Southeast 274 315 7,400 3,900 Climbing FlightAware ADS-B
Wed 02:06:32 PM 47.4016 -122.1500 139° Southeast 276 318 7,700 4,000 Climbing FlightAware ADS-B
Wed 02:06:36 PM 47.3977 -122.1440 135° Southeast 279 321 8,000 3,273 Climbing FlightAware ADS-B
Wed 02:06:43 PM 47.3922 -122.1360 132° Southeast 283 326 8,300 3,273 Climbing FlightAware ADS-B
Wed 02:06:47 PM 47.3885 -122.1290 128° Southeast 285 328 8,600 3,429 Climbing FlightAware ADS-B
Wed 02:06:50 PM 47.3862 -122.1240 123° Southeast 288 331 8,700 2,571 Climbing FlightAware ADS-B
Wed 02:06:54 PM 47.3838 -122.1180 120° Southeast 290 334 8,900 2,571 Climbing FlightAware ADS-B
Wed 02:06:57 PM 47.3814 -122.1110 117° Southeast 292 336 9,000 2,571 Climbing FlightAware ADS-B
Wed 02:07:01 PM 47.3796 -122.1060 114° Southeast 295 339 9,200 2,250 Climbing FlightAware ADS-B
Wed 02:07:05 PM 47.3778 -122.0980 108° East 296 341 9,300 2,250 Climbing FlightAware ADS-B
Wed 02:07:09 PM 47.3761 -122.0890 104° East 299 344 9,500 2,000 Climbing FlightAware ADS-B
Wed 02:07:14 PM 47.3746 -122.0790 101° East 300 345 9,600 1,200 Climbing FlightAware ADS-B
Wed 02:07:19 PM 47.3737 -122.0700 98° East 301 346 9,700 2,000 Climbing FlightAware ADS-B
Wed 02:07:23 PM 47.3731 -122.0620 94° East 302 348 9,900 2,667 Climbing FlightAware ADS-B
Wed 02:07:28 PM 47.3730 -122.0520 89° East 305 351 10,100 2,182 Climbing FlightAware ADS-B
Wed 02:07:34 PM 47.3740 -122.0370 82° East 310 357 10,300 1,946 Climbing FlightAware ADS-B
Wed 02:08:05 PM 47.3843 -121.9750 76° East 310 357 11,300 2,754 Climbing FlightAware ADS-B
Wed 02:08:35 PM 47.3953 -121.9130 75° East 311 358 13,100 3,300 Climbing FlightAware ADS-B
Wed 02:09:05 PM 47.4068 -121.8500 75° East 322 371 14,600 2,400 Climbing FlightAware ADS-B
Wed 02:09:30 PM 47.4151 -121.8036 75° East 347 399 15,300 1,742 Climbing FlightAware ADS-B (CYVR)
Wed 02:09:36 PM 47.4188 -121.7820 75° East 353 406 15,500 1,412 Climbing FlightAware ADS-B
Wed 02:09:47 PM 47.4233 -121.7560 77° East 368 423 15,700 1,440 Climbing FlightAware ADS-B
Wed 02:10:01 PM 47.4273 -121.7210 83° East 385 443 16,100 1,364 Climbing FlightAware ADS-B
Wed 02:10:09 PM 47.4286 -121.7000 86° East 394 453 16,200 1,286 Climbing FlightAware ADS-B
Wed 02:10:15 PM 47.4292 -121.6820 88° East 403 464 16,400 2,000 Climbing FlightAware ADS-B
Wed 02:10:45 PM 47.4280 -121.5960 91° East 424 488 17,400 2,262 Climbing FlightAware ADS-B
Wed 02:11:16 PM 47.4266 -121.5070 91° East 439 505 18,700 2,262 Climbing FlightAware ADS-B
Wed 02:11:46 PM 47.4253 -121.4140 91° East 459 528 19,700 1,770 Climbing FlightAware ADS-B
Wed 02:12:17 PM 47.4238 -121.3160 91° East 480 552 20,500 1,967 Climbing FlightAware ADS-B
Wed 02:12:47 PM 47.4222 -121.2160 91° East 493 567 21,700 2,200 Climbing FlightAware ADS-B
Wed 02:13:17 PM 47.4204 -121.1130 91° East 506 582 22,700 2,066 Climbing FlightAware ADS-B
Wed 02:13:48 PM 47.4185 -121.0040 91° East 519 597 23,800 2,032 Climbing FlightAware ADS-B
Wed 02:14:19 PM 47.4165 -120.8960 92° East 528 608 24,800 1,967 Climbing FlightAware ADS-B
Wed 02:14:49 PM 47.4142 -120.7850 92° East 535 616 25,800 2,100 Climbing FlightAware ADS-B
Wed 02:15:19 PM 47.4118 -120.6750 92° East 539 620 26,900 2,235 Climbing FlightAware ADS-B
Wed 02:15:40 PM 47.4098 -120.5980 94° East 543 625 27,700 2,308 Climbing FlightAware ADS-B
Wed 02:15:45 PM 47.4083 -120.5790 97° East 545 627 27,900 1,667 Climbing FlightAware ADS-B
Wed 02:16:16 PM 47.3898 -120.4690 106° East 553 636 28,700 1,672 Climbing FlightAware ADS-B
Wed 02:16:46 PM 47.3685 -120.3600 106° East 559 643 29,600 1,700 Climbing FlightAware ADS-B
Wed 02:17:16 PM 47.3462 -120.2480 107° East 564 649 30,400 1,636 Climbing FlightAware ADS-B
Wed 02:17:30 PM 47.3367 -120.1980 104° East 565 650 30,800 1,500 Climbing FlightAware ADS-B
Wed 02:17:40 PM 47.3330 -120.1610 96° East 562 647 31,000 293 Climbing FlightAware ADS-B
Wed 02:18:11 PM 47.3411 -120.0430 81° East 549 632 31,000 197 Level FlightAware ADS-B
Wed 02:18:41 PM 47.3528 -119.9330 81° East 549 632 31,200 774 Climbing FlightAware ADS-B
Wed 02:19:13 PM 47.3662 -119.8160 80° East 556 640 31,800 1,258 Climbing FlightAware ADS-B
Wed 02:19:43 PM 47.3809 -119.7010 79° East 561 646 32,500 1,313 Climbing FlightAware ADS-B
Wed 02:20:17 PM 47.3972 -119.5750 79° East 563 648 33,200 1,667 Climbing FlightAware ADS-B
Wed 02:20:55 PM 47.4156 -119.4320 79° East 567 652 34,500 2,000 Climbing FlightAware ADS-B
Wed 02:21:08 PM 47.4240 -119.3840 73° East 553 636 34,900 735 Climbing FlightAware ADS-B
Wed 02:21:44 PM 47.4436 -119.2892 73° East 557 641 35,100 673 Climbing Salt Lake Center
Wed 02:22:46 PM 47.5061 -119.0850 66° East 548 631 36,000 435 Climbing Salt Lake Center
Wed 02:23:48 PM 47.5656 -118.8864 66° East 534 615 36,000 -49 Level Salt Lake Center
Wed 02:24:49 PM 47.6258 -118.6858 66° East 534 615 35,900 394 Descending Salt Lake Center
Wed 02:26:05 PM 47.7128 -118.4078 65° Northeast 533 613 36,900 832 Climbing Seattle Center
Wed 02:27:06 PM 47.7775 -118.2072 64° Northeast 538 619 37,800 984 Climbing Seattle Center
Wed 02:28:07 PM 47.8417 -118.0072 64° Northeast 538 619 38,900 590 Climbing Seattle Center
Wed 02:29:08 PM 47.9050 -117.8114 64° Northeast 528 608 39,000  Climbing Seattle Center
Wed 02:30:09 PM 47.9717 -117.6122 63° Northeast 529 609 38,900 -49 Descending Seattle Center
Wed 02:31:11 PM 48.0347 -117.4136 65° Northeast 530 610 38,900  Level Seattle Center
Wed 02:32:12 PM 48.0944 -117.2242 65° Northeast 517 595 38,900  Level Seattle Center
Wed 02:33:13 PM 48.1494 -117.0519 64° Northeast 472 543 38,900 -49 Level Seattle Center
Wed 02:34:14 PM 48.1961 -116.8850 67° East 442 509 38,800 197 Descending Seattle Center
Wed 02:35:15 PM 48.2339 -116.7278 70° East 404 465 39,300 -984 Climbing Seattle Center
Wed 02:36:16 PM 48.2697 -116.5583 72° East 430 495 36,800 -885 Descending Seattle Center
Wed 02:37:17 PM 48.3272 -116.3531 67° East 444 511 37,500 295 Climbing Seattle Center
Wed 02:38:18 PM 48.3775 -116.1731 67° East 460 529 37,400 146 Descending Seattle Center
Wed 02:39:20 PM 48.4300 -115.9917 66° East 480 552 37,800 341 Climbing Seattle Center
Wed 02:40:21 PM 48.4906 -115.8033 64° Northeast 494 568 38,100 590 Climbing Seattle Center
Wed 02:41:22 PM 48.5522 -115.6100 64° Northeast 504 580 39,000 393 Climbing Seattle Center
Wed 02:42:23 PM 48.6125 -115.4264 64° Northeast 497 572 38,900  Descending Seattle Center
Wed 02:43:24 PM 48.6019 -115.2419 95° East 477 549 39,000 49 Climbing Seattle Center
Wed 02:44:25 PM 48.4914 -115.1892 162° South 446 513 39,000 -49 Level Seattle Center
Wed 02:45:26 PM 48.4167 -115.3200 229° Southwest 415 478 38,900 148 Descending Seattle Center
Wed 02:46:27 PM 48.3578 -115.4581 237° Southwest 400 460 39,300 -1,082 Climbing Seattle Center
Wed 02:47:28 PM 48.3003 -115.5994 239° Southwest 337 388 36,700 -1,082 Descending Seattle Center
Wed 02:48:29 PM 48.2544 -115.7114 238° Southwest 363 418 37,100 244 Climbing Seattle Center
Wed 02:49:31 PM 48.1894 -115.8753 239° Southwest 377 434 37,200 195 Climbing Seattle Center
Wed 02:50:32 PM 48.1322 -116.0186 239° Southwest 396 456 37,500 590 Climbing Seattle Center
Wed 02:52:34 PM 48.0108 -116.3178 239° Southwest 423 487 39,000 459 Climbing Seattle Center
Wed 02:53:35 PM 47.9525 -116.4572 238° Southwest 404 465 38,900  Descending Seattle Center
Wed 02:54:36 PM 47.8975 -116.5928 239° Southwest 391 450 39,000 -689 Climbing Seattle Center
Wed 02:55:37 PM 47.8522 -116.7019 238° Southwest 313 360 37,500 -1,328 Descending Seattle Center
Wed 02:56:38 PM 47.8050 -116.8289 241° Southwest 346 398 36,300 -443 Descending Seattle Center
Wed 02:57:39 PM 47.7483 -116.9550 236° Southwest 369 425 36,600 246 Climbing Seattle Center
Wed 02:58:40 PM 47.6256 -116.9550 180° South 443 510 36,800 590 Climbing Seattle Center
Wed 02:59:41 PM 47.4956 -116.9136 168° South 456 525 37,800 787 Climbing Seattle Center
Wed 03:00:42 PM 47.3644 -116.8731 168° South 470 541 38,400 492 Climbing Seattle Center
Wed 03:01:43 PM 47.2328 -116.8322 168° South 478 550 38,800 246 Climbing Seattle Center
Wed 03:02:44 PM 47.0992 -116.7961 170° South 484 557 38,900 98 Climbing Seattle Center
Wed 03:03:45 PM 46.9511 -116.7508 168° South 454 522 39,000 49 Climbing Seattle Center
Wed 03:04:47 PM 46.8269 -116.7131 168° South 453 521 39,000  Level Seattle Center
Wed 03:05:48 PM 46.7014 -116.6756 168° South 459 528 39,000  Level Seattle Center
Wed 03:06:49 PM 46.5728 -116.6350 168° South 472 543 39,000  Level Seattle Center
Wed 03:07:50 PM 46.4392 -116.5964 169° South 487 560 39,000 -33 Level Seattle Center
Wed 03:09:52 PM 46.3550 -116.7956 239° Southwest 371 427 38,900 -33 Descending Seattle Center
Wed 03:10:53 PM 46.4025 -116.9208 299° West 357 411 38,900 -49 Level Seattle Center
Wed 03:11:54 PM 46.4497 -117.0422 299° West 349 402 38,800  Descending Seattle Center
Wed 03:12:55 PM 46.4992 -117.1658 300° West 349 402 38,900 49 Climbing Seattle Center
Wed 03:13:57 PM 46.5586 -117.2794 307° West 365 420 38,900 -195 Level Seattle Center
Wed 03:14:58 PM 46.6478 -117.2022 31° Northeast 389 448 38,500 -1,967 Descending Seattle Center
Wed 03:15:59 PM 46.6939 -117.0169 70° East 459 528 34,900 -1,426 Descending Seattle Center
Wed 03:17:00 PM 46.7767 -116.9161 40° Northeast 415 478 35,600 639 Climbing Seattle Center
Wed 03:18:01 PM 46.8319 -117.0092 311° West 337 388 36,200 541 Climbing Seattle Center
Wed 03:19:02 PM 46.8464 -117.1386 279° West 326 375 36,700 537 Climbing Seattle Center
Wed 03:20:04 PM 46.8633 -117.2739 280° West 332 382 37,300 537 Climbing Seattle Center
Wed 03:21:05 PM 46.8731 -117.4147 276° West 352 405 37,800 197 Climbing Seattle Center
Wed 03:22:06 PM 46.7881 -117.5042 216° Southwest 390 449 37,700 148 Descending Seattle Center
Wed 03:23:07 PM 46.6694 -117.5364 191° South 431 496 38,100 639 Climbing Seattle Center
Wed 03:24:08 PM 46.5575 -117.4594 155° Southeast 450 518 39,000 344 Climbing Seattle Center
Wed 03:25:09 PM 46.4872 -117.2994 122° Southeast 469 540 38,800  Descending Seattle Center
Wed 03:26:11 PM 46.5000 -117.1053 84° East 438 504 39,000 -1,122 Climbing Seattle Center
Wed 03:27:12 PM 46.5969 -117.0558 19° North 377 434 36,500 -1,180 Descending Seattle Center
Wed 03:28:13 PM 46.7000 -117.0117 16° North 386 444 36,600 -1,525 Climbing Seattle Center
Wed 03:29:14 PM 46.7872 -117.0619 338° Northwest 359 413 33,400 -3,492 Descending Seattle Center
Wed 03:30:15 PM 46.8308 -117.1669 301° West 334 384 29,500 -3,344 Descending Seattle Center
Wed 03:31:16 PM 46.8053 -117.2858 253° West 308 354 26,600 -2,705 Descending Seattle Center
Wed 03:32:17 PM 46.7261 -117.3531 210° Southwest 334 384 24,000 -2,195 Descending Seattle Center
Wed 03:33:19 PM 46.6356 -117.3747 189° South 357 411 22,100 -2,146 Descending Seattle Center
Wed 03:34:20 PM 46.5425 -117.3175 157° South 367 422 19,600 -2,705 Descending Seattle Center
Wed 03:35:21 PM 46.5544 -117.1883 82° East 356 410 16,600 -2,164 Descending Seattle Center
Wed 03:36:22 PM 46.6267 -117.1561 17° North 308 354 15,200 -787 Descending Seattle Center
Wed 03:37:23 PM 46.5931 -117.2239 234° Southwest 225 259 15,000 393 Descending Seattle Center
Wed 03:38:24 PM 46.5306 -117.2456 193° South 228 262 16,000 1,180 Climbing Seattle Center
Wed 03:39:25 PM 46.4636 -117.2922 206° Southwest 270 311 17,400 -49 Climbing Seattle Center
Wed 03:40:26 PM 46.4850 -117.4017 286° West 292 336 15,900 -689 Descending Seattle Center
Wed 03:41:27 PM 46.5283 -117.5228 298° West 322 371 16,000 49 Climbing Seattle Center
Wed 03:42:28 PM 46.5725 -117.6392 299° West 328 377 16,000  Level Seattle Center
Wed 03:43:29 PM 46.6175 -117.7583 299° West 332 382 16,000 -541 Level Seattle Center
Wed 03:44:30 PM 46.6628 -117.8786 299° West 335 386 14,900 -1,475 Descending Seattle Center
Wed 03:45:31 PM 46.7086 -117.9983 299° West 338 389 13,000 -1,426 Descending Seattle Center
Wed 03:46:32 PM 46.7586 -118.1356 298° West 332 382 12,000 -492 Descending Seattle Center
Wed 03:47:33 PM 46.8011 -118.2536 298° West 331 381 12,000 -537 Level Seattle Center
Wed 03:48:35 PM 46.8433 -118.3706 298° West 330 380 10,900 -976 Descending Seattle Center
Wed 03:49:36 PM 46.8856 -118.4839 299° West 319 367 10,000 -934 Descending Seattle Center
Wed 03:50:37 PM 46.9231 -118.5819 299° West 256 295 9,000 -639 Descending Seattle Center
Wed 03:51:38 PM 46.9558 -118.6656 300° West 256 295 8,700 -295 Descending Seattle Center

Login

Don't have an account? Register now (free) for customized features, flight alerts, and more!